sensor_id;sensor_type;location;lat;lon;timestamp;temperature;humidity
12948;DHT22;6539;49.476;8.484;2022-09-13T00:02:12;20.50;99.90
12948;DHT22;6539;49.476;8.484;2022-09-13T00:04:38;20.50;99.90
12948;DHT22;6539;49.476;8.484;2022-09-13T00:07:03;20.50;99.90
12948;DHT22;6539;49.476;8.484;2022-09-13T00:09:31;20.50;99.90
12948;DHT22;6539;49.476;8.484;2022-09-13T00:11:57;20.50;99.90
12948;DHT22;6539;49.476;8.484;2022-09-13T00:14:25;20.40;99.90
12948;DHT22;6539;49.476;8.484;2022-09-13T00:16:51;20.20;99.90
12948;DHT22;6539;49.476;8.484;2022-09-13T00:19:16;20.30;99.90
12948;DHT22;6539;49.476;8.484;2022-09-13T00:21:42;20.20;99.90
12948;DHT22;6539;49.476;8.484;2022-09-13T00:24:11;20.20;99.90
12948;DHT22;6539;49.476;8.484;2022-09-13T00:26:37;19.90;99.90
12948;DHT22;6539;49.476;8.484;2022-09-13T00:29:05;20.20;99.90
12948;DHT22;6539;49.476;8.484;2022-09-13T00:31:31;20.10;99.90
12948;DHT22;6539;49.476;8.484;2022-09-13T00:34:02;20.00;99.90
12948;DHT22;6539;49.476;8.484;2022-09-13T00:36:28;19.90;99.90
12948;DHT22;6539;49.476;8.484;2022-09-13T00:38:54;19.90;99.90
12948;DHT22;6539;49.476;8.484;2022-09-13T00:41:22;19.90;99.90
12948;DHT22;6539;49.476;8.484;2022-09-13T00:43:57;19.70;99.90
12948;DHT22;6539;49.476;8.484;2022-09-13T00:46:43;19.90;99.90
12948;DHT22;6539;49.476;8.484;2022-09-13T00:49:15;20.00;99.90
12948;DHT22;6539;49.476;8.484;2022-09-13T00:51:55;19.70;99.90
12948;DHT22;6539;49.476;8.484;2022-09-13T00:54:33;19.80;99.90
12948;DHT22;6539;49.476;8.484;2022-09-13T00:57:07;19.80;99.90
12948;DHT22;6539;49.476;8.484;2022-09-13T00:59:55;19.90;99.90
12948;DHT22;6539;49.476;8.484;2022-09-13T01:02:28;19.80;99.90
12948;DHT22;6539;49.476;8.484;2022-09-13T01:04:54;19.90;99.90
12948;DHT22;6539;49.476;8.484;2022-09-13T01:07:23;19.70;99.90
12948;DHT22;6539;49.476;8.484;2022-09-13T01:09:49;19.90;99.90
12948;DHT22;6539;49.476;8.484;2022-09-13T01:12:21;19.90;99.90
12948;DHT22;6539;49.476;8.484;2022-09-13T01:14:54;19.90;99.90
12948;DHT22;6539;49.476;8.484;2022-09-13T01:17:25;20.00;99.90
12948;DHT22;6539;49.476;8.484;2022-09-13T01:19:57;19.80;99.90
12948;DHT22;6539;49.476;8.484;2022-09-13T01:37:56;19.70;99.90
12948;DHT22;6539;49.476;8.484;2022-09-13T01:43:41;20.00;99.90
12948;DHT22;6539;49.476;8.484;2022-09-13T01:49:25;19.30;99.90
12948;DHT22;6539;49.476;8.484;2022-09-13T02:00:50;19.80;99.90
12948;DHT22;6539;49.476;8.484;2022-09-13T02:03:36;19.80;99.90
12948;DHT22;6539;49.476;8.484;2022-09-13T02:06:16;19.80;99.90
12948;DHT22;6539;49.476;8.484;2022-09-13T02:09:00;19.80;99.90
12948;DHT22;6539;49.476;8.484;2022-09-13T02:11:40;19.80;99.90
12948;DHT22;6539;49.476;8.484;2022-09-13T02:14:25;19.70;99.90
12948;DHT22;6539;49.476;8.484;2022-09-13T02:17:01;19.80;99.90
12948;DHT22;6539;49.476;8.484;2022-09-13T02:22:07;19.90;99.90
12948;DHT22;6539;49.476;8.484;2022-09-13T02:24:44;19.70;99.90
12948;DHT22;6539;49.476;8.484;2022-09-13T02:27:23;19.50;99.90
12948;DHT22;6539;49.476;8.484;2022-09-13T02:30:01;19.80;99.90
12948;DHT22;6539;49.476;8.484;2022-09-13T02:32:41;19.70;99.90
12948;DHT22;6539;49.476;8.484;2022-09-13T02:35:26;19.60;99.90
12948;DHT22;6539;49.476;8.484;2022-09-13T02:38:04;19.60;99.90
12948;DHT22;6539;49.476;8.484;2022-09-13T02:40:45;19.60;99.90
12948;DHT22;6539;49.476;8.484;2022-09-13T02:43:24;19.60;99.90
12948;DHT22;6539;49.476;8.484;2022-09-13T02:46:09;19.60;99.90
12948;DHT22;6539;49.476;8.484;2022-09-13T02:52:08;19.70;99.90
12948;DHT22;6539;49.476;8.484;2022-09-13T02:55:06;19.60;99.90
12948;DHT22;6539;49.476;8.484;2022-09-13T02:57:51;19.70;99.90
12948;DHT22;6539;49.476;8.484;2022-09-13T03:00:26;19.60;99.90
12948;DHT22;6539;49.476;8.484;2022-09-13T03:02:55;19.50;99.90
12948;DHT22;6539;49.476;8.484;2022-09-13T03:05:26;19.40;99.90
12948;DHT22;6539;49.476;8.484;2022-09-13T03:07:52;19.30;99.90
12948;DHT22;6539;49.476;8.484;2022-09-13T03:10:21;19.40;99.90
12948;DHT22;6539;49.476;8.484;2022-09-13T03:19:38;19.30;99.90
12948;DHT22;6539;49.476;8.484;2022-09-13T03:22:26;19.40;99.90
12948;DHT22;6539;49.476;8.484;2022-09-13T03:30:34;19.10;99.90
12948;DHT22;6539;49.476;8.484;2022-09-13T03:33:17;19.00;99.90
12948;DHT22;6539;49.476;8.484;2022-09-13T03:36:09;19.00;99.90
12948;DHT22;6539;49.476;8.484;2022-09-13T03:38:59;19.00;99.90
12948;DHT22;6539;49.476;8.484;2022-09-13T03:41:33;19.10;99.90
12948;DHT22;6539;49.476;8.484;2022-09-13T03:44:06;19.00;99.90
12948;DHT22;6539;49.476;8.484;2022-09-13T03:46:42;18.60;99.90
12948;DHT22;6539;49.476;8.484;2022-09-13T03:49:14;18.50;99.90
12948;DHT22;6539;49.476;8.484;2022-09-13T03:51:47;18.70;99.90
12948;DHT22;6539;49.476;8.484;2022-09-13T03:54:24;18.90;99.90
12948;DHT22;6539;49.476;8.484;2022-09-13T03:57:14;18.70;99.90
12948;DHT22;6539;49.476;8.484;2022-09-13T03:59:46;18.70;99.90
12948;DHT22;6539;49.476;8.484;2022-09-13T04:02:21;18.80;99.90
12948;DHT22;6539;49.476;8.484;2022-09-13T04:04:48;18.80;99.90
12948;DHT22;6539;49.476;8.484;2022-09-13T04:07:22;18.80;99.90
12948;DHT22;6539;49.476;8.484;2022-09-13T04:14:49;18.80;99.90
12948;DHT22;6539;49.476;8.484;2022-09-13T04:17:17;18.90;99.90
12948;DHT22;6539;49.476;8.484;2022-09-13T04:19:43;19.10;99.90
12948;DHT22;6539;49.476;8.484;2022-09-13T04:22:12;18.70;99.90
12948;DHT22;6539;49.476;8.484;2022-09-13T04:24:38;18.80;99.90
12948;DHT22;6539;49.476;8.484;2022-09-13T04:27:06;18.60;99.90
12948;DHT22;6539;49.476;8.484;2022-09-13T04:29:32;18.70;99.90
12948;DHT22;6539;49.476;8.484;2022-09-13T04:32:00;18.70;99.90
12948;DHT22;6539;49.476;8.484;2022-09-13T04:34:28;18.40;99.90
12948;DHT22;6539;49.476;8.484;2022-09-13T04:36:57;18.30;99.90
12948;DHT22;6539;49.476;8.484;2022-09-13T04:39:25;18.50;99.90
12948;DHT22;6539;49.476;8.484;2022-09-13T04:41:51;18.30;99.90
12948;DHT22;6539;49.476;8.484;2022-09-13T04:44:20;18.40;99.90
12948;DHT22;6539;49.476;8.484;2022-09-13T04:46:47;18.40;99.90
12948;DHT22;6539;49.476;8.484;2022-09-13T04:49:14;18.40;99.90
12948;DHT22;6539;49.476;8.484;2022-09-13T04:51:41;18.10;99.90
12948;DHT22;6539;49.476;8.484;2022-09-13T04:54:08;18.20;99.90
12948;DHT22;6539;49.476;8.484;2022-09-13T04:56:35;18.50;99.90
12948;DHT22;6539;49.476;8.484;2022-09-13T04:59:04;18.60;99.90
12948;DHT22;6539;49.476;8.484;2022-09-13T05:03:58;18.10;99.90
12948;DHT22;6539;49.476;8.484;2022-09-13T05:06:24;18.50;99.90
12948;DHT22;6539;49.476;8.484;2022-09-13T05:08:51;18.00;99.90
12948;DHT22;6539;49.476;8.484;2022-09-13T05:11:24;18.10;99.90
12948;DHT22;6539;49.476;8.484;2022-09-13T05:13:57;18.10;99.90
12948;DHT22;6539;49.476;8.484;2022-09-13T05:16:29;18.30;99.90
12948;DHT22;6539;49.476;8.484;2022-09-13T05:18:57;17.90;99.90
12948;DHT22;6539;49.476;8.484;2022-09-13T05:21:23;18.40;99.90
12948;DHT22;6539;49.476;8.484;2022-09-13T05:23:50;18.00;99.90
12948;DHT22;6539;49.476;8.484;2022-09-13T05:26:19;18.20;99.90
12948;DHT22;6539;49.476;8.484;2022-09-13T05:28:52;17.90;99.90
12948;DHT22;6539;49.476;8.484;2022-09-13T05:31:29;18.10;99.90
12948;DHT22;6539;49.476;8.484;2022-09-13T05:34:03;18.00;99.90
12948;DHT22;6539;49.476;8.484;2022-09-13T05:36:34;18.70;99.90
12948;DHT22;6539;49.476;8.484;2022-09-13T05:39:02;17.90;99.90
12948;DHT22;6539;49.476;8.484;2022-09-13T05:41:29;18.30;99.90
12948;DHT22;6539;49.476;8.484;2022-09-13T05:43:54;18.40;99.90
12948;DHT22;6539;49.476;8.484;2022-09-13T05:46:20;17.80;99.90
12948;DHT22;6539;49.476;8.484;2022-09-13T05:48:47;17.80;99.90
12948;DHT22;6539;49.476;8.484;2022-09-13T05:51:18;17.80;99.90
12948;DHT22;6539;49.476;8.484;2022-09-13T05:53:47;18.10;99.90
12948;DHT22;6539;49.476;8.484;2022-09-13T05:56:25;18.00;99.90
12948;DHT22;6539;49.476;8.484;2022-09-13T05:58:52;17.90;99.90
12948;DHT22;6539;49.476;8.484;2022-09-13T06:01:22;18.10;99.90
12948;DHT22;6539;49.476;8.484;2022-09-13T06:03:54;17.90;99.90
12948;DHT22;6539;49.476;8.484;2022-09-13T06:06:26;18.00;99.90
12948;DHT22;6539;49.476;8.484;2022-09-13T06:08:56;17.90;99.90
12948;DHT22;6539;49.476;8.484;2022-09-13T06:11:25;18.20;99.90
12948;DHT22;6539;49.476;8.484;2022-09-13T06:13:52;17.90;99.90
12948;DHT22;6539;49.476;8.484;2022-09-13T06:16:18;17.90;99.90
12948;DHT22;6539;49.476;8.484;2022-09-13T06:21:13;18.30;99.90
12948;DHT22;6539;49.476;8.484;2022-09-13T06:23:46;18.40;99.90
12948;DHT22;6539;49.476;8.484;2022-09-13T06:26:17;17.90;99.90
12948;DHT22;6539;49.476;8.484;2022-09-13T06:28:52;18.30;99.90
12948;DHT22;6539;49.476;8.484;2022-09-13T06:31:21;18.10;99.90
12948;DHT22;6539;49.476;8.484;2022-09-13T06:33:55;18.10;99.90
12948;DHT22;6539;49.476;8.484;2022-09-13T06:36:22;18.50;99.90
12948;DHT22;6539;49.476;8.484;2022-09-13T06:38:48;18.10;99.90
12948;DHT22;6539;49.476;8.484;2022-09-13T06:41:18;18.20;99.90
12948;DHT22;6539;49.476;8.484;2022-09-13T06:43:51;18.00;99.90
12948;DHT22;6539;49.476;8.484;2022-09-13T06:48:50;18.30;99.90
12948;DHT22;6539;49.476;8.484;2022-09-13T06:51:23;18.20;99.90
12948;DHT22;6539;49.476;8.484;2022-09-13T06:53:50;18.20;99.90
12948;DHT22;6539;49.476;8.484;2022-09-13T06:56:21;17.80;99.90
12948;DHT22;6539;49.476;8.484;2022-09-13T06:58:49;18.50;99.90
12948;DHT22;6539;49.476;8.484;2022-09-13T07:01:33;18.30;99.90
12948;DHT22;6539;49.476;8.484;2022-09-13T07:04:08;17.90;99.90
12948;DHT22;6539;49.476;8.484;2022-09-13T07:06:39;18.50;99.90
12948;DHT22;6539;49.476;8.484;2022-09-13T07:09:19;18.10;99.90
12948;DHT22;6539;49.476;8.484;2022-09-13T07:11:48;18.20;99.90
12948;DHT22;6539;49.476;8.484;2022-09-13T07:14:24;18.60;99.90
12948;DHT22;6539;49.476;8.484;2022-09-13T07:16:54;18.40;99.90
12948;DHT22;6539;49.476;8.484;2022-09-13T07:19:25;18.40;99.90
12948;DHT22;6539;49.476;8.484;2022-09-13T07:21:58;18.30;99.90
12948;DHT22;6539;49.476;8.484;2022-09-13T07:24:26;18.20;99.90
12948;DHT22;6539;49.476;8.484;2022-09-13T07:26:54;18.50;99.90
12948;DHT22;6539;49.476;8.484;2022-09-13T07:29:25;18.70;99.90
12948;DHT22;6539;49.476;8.484;2022-09-13T07:31:53;18.30;99.90
12948;DHT22;6539;49.476;8.484;2022-09-13T07:34:22;18.40;99.90
12948;DHT22;6539;49.476;8.484;2022-09-13T07:36:49;18.80;99.90
12948;DHT22;6539;49.476;8.484;2022-09-13T07:39:18;19.20;99.90
12948;DHT22;6539;49.476;8.484;2022-09-13T07:41:47;19.00;99.90
12948;DHT22;6539;49.476;8.484;2022-09-13T07:44:13;19.50;99.90
12948;DHT22;6539;49.476;8.484;2022-09-13T07:46:38;19.60;99.90
12948;DHT22;6539;49.476;8.484;2022-09-13T07:49:06;20.10;99.90
12948;DHT22;6539;49.476;8.484;2022-09-13T07:51:36;19.80;99.90
12948;DHT22;6539;49.476;8.484;2022-09-13T07:54:10;19.90;99.90
12948;DHT22;6539;49.476;8.484;2022-09-13T07:56:39;19.90;99.90
12948;DHT22;6539;49.476;8.484;2022-09-13T07:59:09;19.90;99.90
12948;DHT22;6539;49.476;8.484;2022-09-13T08:01:46;20.00;99.90
12948;DHT22;6539;49.476;8.484;2022-09-13T08:04:15;20.30;99.90
12948;DHT22;6539;49.476;8.484;2022-09-13T08:06:47;20.10;99.90
12948;DHT22;6539;49.476;8.484;2022-09-13T08:09:14;20.00;99.90
12948;DHT22;6539;49.476;8.484;2022-09-13T08:11:48;19.70;99.90
12948;DHT22;6539;49.476;8.484;2022-09-13T08:14:21;19.80;99.90
12948;DHT22;6539;49.476;8.484;2022-09-13T08:16:47;19.90;99.90
12948;DHT22;6539;49.476;8.484;2022-09-13T08:19:18;19.80;99.90
12948;DHT22;6539;49.476;8.484;2022-09-13T08:21:49;20.00;99.90
12948;DHT22;6539;49.476;8.484;2022-09-13T08:24:19;20.00;99.90
12948;DHT22;6539;49.476;8.484;2022-09-13T08:26:46;20.60;99.90
12948;DHT22;6539;49.476;8.484;2022-09-13T08:29:12;20.30;99.90
12948;DHT22;6539;49.476;8.484;2022-09-13T08:31:39;20.60;99.90
12948;DHT22;6539;49.476;8.484;2022-09-13T08:34:11;20.50;99.90
12948;DHT22;6539;49.476;8.484;2022-09-13T08:36:43;20.50;99.90
12948;DHT22;6539;49.476;8.484;2022-09-13T08:39:12;20.40;99.90
12948;DHT22;6539;49.476;8.484;2022-09-13T08:47:03;20.80;99.90
12948;DHT22;6539;49.476;8.484;2022-09-13T08:49:59;21.10;99.90
12948;DHT22;6539;49.476;8.484;2022-09-13T08:52:46;21.00;99.90
12948;DHT22;6539;49.476;8.484;2022-09-13T08:57:59;20.70;99.90
12948;DHT22;6539;49.476;8.484;2022-09-13T09:00:39;20.80;99.90
12948;DHT22;6539;49.476;8.484;2022-09-13T09:05:57;21.30;99.90
12948;DHT22;6539;49.476;8.484;2022-09-13T09:08:32;21.20;99.90
12948;DHT22;6539;49.476;8.484;2022-09-13T09:11:13;21.50;99.90
12948;DHT22;6539;49.476;8.484;2022-09-13T09:13:59;21.80;99.90
12948;DHT22;6539;49.476;8.484;2022-09-13T09:17:10;22.00;99.90
12948;DHT22;6539;49.476;8.484;2022-09-13T09:19:53;22.20;99.90
12948;DHT22;6539;49.476;8.484;2022-09-13T09:22:33;22.00;99.90
12948;DHT22;6539;49.476;8.484;2022-09-13T09:25:03;22.10;99.90
12948;DHT22;6539;49.476;8.484;2022-09-13T09:27:30;22.30;99.90
12948;DHT22;6539;49.476;8.484;2022-09-13T09:29:59;22.40;99.90
12948;DHT22;6539;49.476;8.484;2022-09-13T09:38:39;22.70;99.90
12948;DHT22;6539;49.476;8.484;2022-09-13T09:44:04;23.00;99.90
12948;DHT22;6539;49.476;8.484;2022-09-13T09:46:43;23.20;99.90
12948;DHT22;6539;49.476;8.484;2022-09-13T09:49:32;23.40;99.90
12948;DHT22;6539;49.476;8.484;2022-09-13T09:52:57;23.70;99.90
12948;DHT22;6539;49.476;8.484;2022-09-13T09:57:59;23.40;99.90
12948;DHT22;6539;49.476;8.484;2022-09-13T10:00:31;23.00;99.90
12948;DHT22;6539;49.476;8.484;2022-09-13T10:03:03;23.00;99.90
12948;DHT22;6539;49.476;8.484;2022-09-13T10:05:35;22.90;99.90
12948;DHT22;6539;49.476;8.484;2022-09-13T10:08:30;22.80;99.90
12948;DHT22;6539;49.476;8.484;2022-09-13T10:11:02;22.80;99.90
12948;DHT22;6539;49.476;8.484;2022-09-13T10:13:30;22.70;99.90
12948;DHT22;6539;49.476;8.484;2022-09-13T10:18:47;22.70;99.90
12948;DHT22;6539;49.476;8.484;2022-09-13T10:23:45;22.70;99.90
12948;DHT22;6539;49.476;8.484;2022-09-13T10:26:19;22.80;99.90
12948;DHT22;6539;49.476;8.484;2022-09-13T10:29:05;22.70;99.90
12948;DHT22;6539;49.476;8.484;2022-09-13T10:31:38;22.80;99.90
12948;DHT22;6539;49.476;8.484;2022-09-13T10:37:05;23.30;99.90
12948;DHT22;6539;49.476;8.484;2022-09-13T10:42:35;23.50;99.90
12948;DHT22;6539;49.476;8.484;2022-09-13T10:45:07;23.50;99.90
12948;DHT22;6539;49.476;8.484;2022-09-13T10:47:47;23.50;99.90
12948;DHT22;6539;49.476;8.484;2022-09-13T10:50:25;23.40;99.90
12948;DHT22;6539;49.476;8.484;2022-09-13T10:52:57;23.20;99.90
12948;DHT22;6539;49.476;8.484;2022-09-13T11:04:02;22.90;99.90
12948;DHT22;6539;49.476;8.484;2022-09-13T11:13:55;23.20;99.90
12948;DHT22;6539;49.476;8.484;2022-09-13T11:20:11;23.10;99.90
12948;DHT22;6539;49.476;8.484;2022-09-13T11:52:59;22.80;99.90
12948;DHT22;6539;49.476;8.484;2022-09-13T11:56:00;22.90;99.90
12948;DHT22;6539;49.476;8.484;2022-09-13T11:58:38;22.90;99.90
12948;DHT22;6539;49.476;8.484;2022-09-13T12:01:33;23.00;99.90
12948;DHT22;6539;49.476;8.484;2022-09-13T12:04:10;23.10;99.90
12948;DHT22;6539;49.476;8.484;2022-09-13T12:06:53;22.20;99.90
12948;DHT22;6539;49.476;8.484;2022-09-13T12:09:31;23.30;99.90
12948;DHT22;6539;49.476;8.484;2022-09-13T12:12:06;23.20;99.90
12948;DHT22;6539;49.476;8.484;2022-09-13T12:15:13;23.20;99.90
12948;DHT22;6539;49.476;8.484;2022-09-13T12:17:59;23.30;99.90
12948;DHT22;6539;49.476;8.484;2022-09-13T12:20:37;23.30;99.90
12948;DHT22;6539;49.476;8.484;2022-09-13T12:23:46;23.30;99.90
12948;DHT22;6539;49.476;8.484;2022-09-13T12:26:36;23.30;99.90
12948;DHT22;6539;49.476;8.484;2022-09-13T12:29:45;23.20;99.90
12948;DHT22;6539;49.476;8.484;2022-09-13T12:32:18;23.20;99.90
12948;DHT22;6539;49.476;8.484;2022-09-13T12:35:07;23.20;99.90
12948;DHT22;6539;49.476;8.484;2022-09-13T12:41:03;23.10;99.90
12948;DHT22;6539;49.476;8.484;2022-09-13T12:49:50;22.90;99.90
12948;DHT22;6539;49.476;8.484;2022-09-13T13:01:32;23.00;99.90
12948;DHT22;6539;49.476;8.484;2022-09-13T13:04:14;23.00;99.90
12948;DHT22;6539;49.476;8.484;2022-09-13T13:09:43;23.30;99.90
12948;DHT22;6539;49.476;8.484;2022-09-13T13:12:23;23.30;99.90
12948;DHT22;6539;49.476;8.484;2022-09-13T13:14:52;23.60;99.90
12948;DHT22;6539;49.476;8.484;2022-09-13T13:20:40;23.70;99.90
12948;DHT22;6539;49.476;8.484;2022-09-13T13:31:39;24.00;99.90
12948;DHT22;6539;49.476;8.484;2022-09-13T13:34:44;24.00;99.90
12948;DHT22;6539;49.476;8.484;2022-09-13T13:39:46;24.20;99.90
12948;DHT22;6539;49.476;8.484;2022-09-13T13:42:26;24.20;99.90
12948;DHT22;6539;49.476;8.484;2022-09-13T13:45:16;24.30;99.90
12948;DHT22;6539;49.476;8.484;2022-09-13T13:47:55;24.40;99.90
12948;DHT22;6539;49.476;8.484;2022-09-13T13:53:42;24.50;99.90
12948;DHT22;6539;49.476;8.484;2022-09-13T13:56:43;24.50;99.90
12948;DHT22;6539;49.476;8.484;2022-09-13T13:59:18;24.50;99.90
12948;DHT22;6539;49.476;8.484;2022-09-13T14:01:52;24.50;99.90
12948;DHT22;6539;49.476;8.484;2022-09-13T14:07:06;24.50;99.90
12948;DHT22;6539;49.476;8.484;2022-09-13T14:09:55;24.50;99.90
12948;DHT22;6539;49.476;8.484;2022-09-13T14:12:48;24.50;99.90
12948;DHT22;6539;49.476;8.484;2022-09-13T14:21:31;24.50;99.90
12948;DHT22;6539;49.476;8.484;2022-09-13T14:24:18;24.50;99.90
12948;DHT22;6539;49.476;8.484;2022-09-13T14:26:56;24.50;99.90
12948;DHT22;6539;49.476;8.484;2022-09-13T14:29:24;24.40;99.90
12948;DHT22;6539;49.476;8.484;2022-09-13T14:32:00;24.40;99.90
12948;DHT22;6539;49.476;8.484;2022-09-13T14:34:30;24.40;99.90
12948;DHT22;6539;49.476;8.484;2022-09-13T14:37:15;24.40;99.90
12948;DHT22;6539;49.476;8.484;2022-09-13T14:42:41;24.40;99.90
12948;DHT22;6539;49.476;8.484;2022-09-13T14:45:19;24.30;99.90
12948;DHT22;6539;49.476;8.484;2022-09-13T14:51:02;24.30;99.90
12948;DHT22;6539;49.476;8.484;2022-09-13T14:53:36;24.40;99.90
12948;DHT22;6539;49.476;8.484;2022-09-13T14:56:07;24.40;99.90
12948;DHT22;6539;49.476;8.484;2022-09-13T14:58:55;24.40;99.90
12948;DHT22;6539;49.476;8.484;2022-09-13T15:01:33;24.50;99.90
12948;DHT22;6539;49.476;8.484;2022-09-13T15:04:03;24.40;99.90
12948;DHT22;6539;49.476;8.484;2022-09-13T15:06:34;24.50;99.90
12948;DHT22;6539;49.476;8.484;2022-09-13T15:11:55;24.50;99.90
12948;DHT22;6539;49.476;8.484;2022-09-13T15:14:30;24.40;99.90
12948;DHT22;6539;49.476;8.484;2022-09-13T15:20:03;24.40;99.90
12948;DHT22;6539;49.476;8.484;2022-09-13T15:22:41;24.40;99.90
12948;DHT22;6539;49.476;8.484;2022-09-13T15:27:51;24.30;99.90
12948;DHT22;6539;49.476;8.484;2022-09-13T15:30:31;24.20;99.90
12948;DHT22;6539;49.476;8.484;2022-09-13T15:35:41;24.30;99.90
12948;DHT22;6539;49.476;8.484;2022-09-13T15:41:13;24.30;99.90
12948;DHT22;6539;49.476;8.484;2022-09-13T15:43:46;24.40;99.90
12948;DHT22;6539;49.476;8.484;2022-09-13T15:46:18;24.40;99.90
12948;DHT22;6539;49.476;8.484;2022-09-13T15:48:55;24.40;99.90
12948;DHT22;6539;49.476;8.484;2022-09-13T15:51:26;24.40;99.90
12948;DHT22;6539;49.476;8.484;2022-09-13T15:53:52;24.40;99.90
12948;DHT22;6539;49.476;8.484;2022-09-13T15:56:34;24.40;99.90
12948;DHT22;6539;49.476;8.484;2022-09-13T15:59:04;24.40;99.90
12948;DHT22;6539;49.476;8.484;2022-09-13T16:01:33;24.40;99.90
12948;DHT22;6539;49.476;8.484;2022-09-13T16:03:59;24.40;99.90
12948;DHT22;6539;49.476;8.484;2022-09-13T16:06:29;24.40;99.90
12948;DHT22;6539;49.476;8.484;2022-09-13T16:08:54;24.40;99.90
12948;DHT22;6539;49.476;8.484;2022-09-13T16:11:20;24.40;99.90
12948;DHT22;6539;49.476;8.484;2022-09-13T16:13:46;24.40;99.90
12948;DHT22;6539;49.476;8.484;2022-09-13T16:16:15;24.40;99.90
12948;DHT22;6539;49.476;8.484;2022-09-13T16:18:40;24.30;99.90
12948;DHT22;6539;49.476;8.484;2022-09-13T16:21:09;24.30;99.90
12948;DHT22;6539;49.476;8.484;2022-09-13T16:23:39;24.30;99.90
12948;DHT22;6539;49.476;8.484;2022-09-13T16:26:09;24.30;99.90
12948;DHT22;6539;49.476;8.484;2022-09-13T16:28:38;24.20;99.90
12948;DHT22;6539;49.476;8.484;2022-09-13T16:31:06;24.20;99.90
12948;DHT22;6539;49.476;8.484;2022-09-13T16:33:32;24.20;99.90
12948;DHT22;6539;49.476;8.484;2022-09-13T16:35:57;24.10;99.90
12948;DHT22;6539;49.476;8.484;2022-09-13T16:38:23;24.10;99.90
12948;DHT22;6539;49.476;8.484;2022-09-13T16:40:49;24.10;99.90
12948;DHT22;6539;49.476;8.484;2022-09-13T16:43:15;24.10;99.90
12948;DHT22;6539;49.476;8.484;2022-09-13T16:45:41;24.10;99.90
12948;DHT22;6539;49.476;8.484;2022-09-13T16:48:11;24.10;99.90
12948;DHT22;6539;49.476;8.484;2022-09-13T16:50:42;24.10;99.90
12948;DHT22;6539;49.476;8.484;2022-09-13T16:53:08;24.00;99.90
12948;DHT22;6539;49.476;8.484;2022-09-13T16:55:40;24.00;99.90
12948;DHT22;6539;49.476;8.484;2022-09-13T16:58:06;24.00;99.90
12948;DHT22;6539;49.476;8.484;2022-09-13T17:00:34;23.90;99.90
12948;DHT22;6539;49.476;8.484;2022-09-13T17:03:02;23.90;99.90
12948;DHT22;6539;49.476;8.484;2022-09-13T17:05:28;23.90;99.90
12948;DHT22;6539;49.476;8.484;2022-09-13T17:07:58;23.90;99.90
12948;DHT22;6539;49.476;8.484;2022-09-13T17:10:26;23.90;99.90
12948;DHT22;6539;49.476;8.484;2022-09-13T17:12:53;23.80;99.90
12948;DHT22;6539;49.476;8.484;2022-09-13T17:15:18;23.80;99.90
12948;DHT22;6539;49.476;8.484;2022-09-13T17:17:44;23.80;99.90
12948;DHT22;6539;49.476;8.484;2022-09-13T17:20:13;23.70;99.90
12948;DHT22;6539;49.476;8.484;2022-09-13T17:22:39;23.70;99.90
12948;DHT22;6539;49.476;8.484;2022-09-13T17:25:08;23.70;99.90
12948;DHT22;6539;49.476;8.484;2022-09-13T17:27:35;23.60;99.90
12948;DHT22;6539;49.476;8.484;2022-09-13T17:30:00;23.60;99.90
12948;DHT22;6539;49.476;8.484;2022-09-13T17:32:29;23.60;99.90
12948;DHT22;6539;49.476;8.484;2022-09-13T17:34:57;23.50;99.90
12948;DHT22;6539;49.476;8.484;2022-09-13T17:37:25;23.50;99.90
12948;DHT22;6539;49.476;8.484;2022-09-13T17:39:51;23.50;99.90
12948;DHT22;6539;49.476;8.484;2022-09-13T17:42:17;23.40;99.90
12948;DHT22;6539;49.476;8.484;2022-09-13T17:44:45;23.40;99.90
12948;DHT22;6539;49.476;8.484;2022-09-13T17:47:16;23.40;99.90
12948;DHT22;6539;49.476;8.484;2022-09-13T17:49:41;23.30;99.90
12948;DHT22;6539;49.476;8.484;2022-09-13T17:52:10;23.30;99.90
12948;DHT22;6539;49.476;8.484;2022-09-13T17:54:40;23.30;99.90
12948;DHT22;6539;49.476;8.484;2022-09-13T17:57:10;23.20;99.90
12948;DHT22;6539;49.476;8.484;2022-09-13T17:59:42;23.20;99.90
12948;DHT22;6539;49.476;8.484;2022-09-13T18:02:09;23.20;99.90
12948;DHT22;6539;49.476;8.484;2022-09-13T18:04:34;23.20;99.90
12948;DHT22;6539;49.476;8.484;2022-09-13T18:07:02;23.10;99.90
12948;DHT22;6539;49.476;8.484;2022-09-13T18:09:34;23.10;99.90
12948;DHT22;6539;49.476;8.484;2022-09-13T18:12:00;23.00;99.90
12948;DHT22;6539;49.476;8.484;2022-09-13T18:14:26;23.00;99.90
12948;DHT22;6539;49.476;8.484;2022-09-13T18:16:54;23.00;99.90
12948;DHT22;6539;49.476;8.484;2022-09-13T18:19:22;22.90;99.90
12948;DHT22;6539;49.476;8.484;2022-09-13T18:21:50;22.90;99.90
12948;DHT22;6539;49.476;8.484;2022-09-13T18:24:16;22.80;99.90
12948;DHT22;6539;49.476;8.484;2022-09-13T18:26:42;22.80;99.90
12948;DHT22;6539;49.476;8.484;2022-09-13T18:29:12;22.80;99.90
12948;DHT22;6539;49.476;8.484;2022-09-13T18:31:40;22.80;99.90
12948;DHT22;6539;49.476;8.484;2022-09-13T18:34:08;22.80;99.90
12948;DHT22;6539;49.476;8.484;2022-09-13T18:36:36;22.80;99.90
12948;DHT22;6539;49.476;8.484;2022-09-13T18:39:04;22.70;99.90
12948;DHT22;6539;49.476;8.484;2022-09-13T18:41:34;22.80;99.90
12948;DHT22;6539;49.476;8.484;2022-09-13T18:44:02;22.70;99.90
12948;DHT22;6539;49.476;8.484;2022-09-13T18:46:32;22.70;99.90
12948;DHT22;6539;49.476;8.484;2022-09-13T18:48:59;22.70;99.90
12948;DHT22;6539;49.476;8.484;2022-09-13T18:51:28;22.50;99.90
12948;DHT22;6539;49.476;8.484;2022-09-13T18:54:04;22.70;99.90
12948;DHT22;6539;49.476;8.484;2022-09-13T18:56:34;22.70;99.90
12948;DHT22;6539;49.476;8.484;2022-09-13T18:59:02;22.70;99.90
12948;DHT22;6539;49.476;8.484;2022-09-13T19:01:33;22.70;99.90
12948;DHT22;6539;49.476;8.484;2022-09-13T19:04:08;22.50;99.90
12948;DHT22;6539;49.476;8.484;2022-09-13T19:06:40;22.50;99.90
12948;DHT22;6539;49.476;8.484;2022-09-13T19:09:08;22.50;99.90
12948;DHT22;6539;49.476;8.484;2022-09-13T19:11:42;22.50;99.90
12948;DHT22;6539;49.476;8.484;2022-09-13T19:14:09;22.50;99.90
12948;DHT22;6539;49.476;8.484;2022-09-13T19:16:58;22.50;99.90
12948;DHT22;6539;49.476;8.484;2022-09-13T19:19:29;22.50;99.90
12948;DHT22;6539;49.476;8.484;2022-09-13T19:21:56;22.40;99.90
12948;DHT22;6539;49.476;8.484;2022-09-13T19:24:24;22.40;99.90
12948;DHT22;6539;49.476;8.484;2022-09-13T19:26:51;22.40;99.90
12948;DHT22;6539;49.476;8.484;2022-09-13T19:29:21;22.40;99.90
12948;DHT22;6539;49.476;8.484;2022-09-13T19:31:50;22.40;99.90
12948;DHT22;6539;49.476;8.484;2022-09-13T19:34:19;22.40;99.90
12948;DHT22;6539;49.476;8.484;2022-09-13T19:36:46;22.40;99.90
12948;DHT22;6539;49.476;8.484;2022-09-13T19:39:14;22.40;99.90
12948;DHT22;6539;49.476;8.484;2022-09-13T19:41:40;22.40;99.90
12948;DHT22;6539;49.476;8.484;2022-09-13T19:44:07;22.40;99.90
12948;DHT22;6539;49.476;8.484;2022-09-13T19:46:38;22.40;99.90
12948;DHT22;6539;49.476;8.484;2022-09-13T19:49:09;22.40;99.90
12948;DHT22;6539;49.476;8.484;2022-09-13T19:51:39;22.40;99.90
12948;DHT22;6539;49.476;8.484;2022-09-13T19:54:07;22.40;99.90